Private Wetterstation Wechselburg
Wetterdaten: Freitag, 17.02.2023
Datum Zeit Temp. +2m Bodentemp. Temp.+5cm Temp. Wind Windchill X Diff Temp. Feuchte +2m Feuchte +5cm Luftdruck Regen Wind Richtung Richtung Sonnenschein Taupunkt Windchill Windben
17.02.2023 00:00 8,0 C 7,2 C 69,7 C 8,1 C 8,1 C 0,1 C 75 % 99 % 1022,5 hPa 0,0 l/m 1,1 km/h (1 Bft) O-NO 67 0 min 3,8 C 8,1 C 0,0 km/h (0 Bft)
17.02.2023 00:05 8,1 C 7,2 C 69,7 C 8,2 C 8,2 C 0,1 C 75 % 99 % 1022,5 hPa 0,0 l/m 1,9 km/h (1 Bft) S-SW 202 0 min 3,9 C 8,2 C 5,3 km/h (1 Bft)
17.02.2023 00:11 8,1 C 7,2 C 69,7 C 8,3 C 8,3 C 0,2 C 75 % 99 % 1022,5 hPa 0,0 l/m 1,3 km/h (1 Bft) N 0 0 min 3,9 C 8,3 C 0,0 km/h (0 Bft)
17.02.2023 00:26 8,1 C 7,2 C 73,0 C 8,3 C 8,3 C 0,2 C 75 % 99 % 1022,5 hPa 0,0 l/m 0,6 km/h (0 Bft) SO 135 0 min 3,9 C 8,3 C 7,9 km/h (2 Bft)
17.02.2023 00:27 8,1 C 7,2 C 73,0 C 8,3 C 8,3 C 0,2 C 75 % 99 % 1022,5 hPa 0,0 l/m 0,6 km/h (0 Bft) SO 135 0 min 3,9 C 8,3 C 0,0 km/h (0 Bft)
17.02.2023 00:32 8,1 C 7,2 C 73,0 C 8,3 C 8,3 C 0,2 C 75 % 99 % 1022,5 hPa 0,0 l/m 0,2 km/h (0 Bft) SO 135 0 min 3,9 C 8,3 C 0,0 km/h (0 Bft)
17.02.2023 00:35 8,1 C 7,2 C 73,0 C 8,3 C 8,3 C 0,2 C 75 % 99 % 1022,5 hPa 0,0 l/m 0,2 km/h (0 Bft) SO 135 0 min 3,9 C 8,3 C 0,0 km/h (0 Bft)
17.02.2023 00:40 8,1 C 7,2 C 73,0 C 8,2 C 8,2 C 0,1 C 75 % 99 % 1022,5 hPa 0,0 l/m 0,3 km/h (0 Bft) S-SO 157 0 min 3,9 C 8,2 C 3,1 km/h (1 Bft)
17.02.2023 00:45 8,1 C 7,2 C 73,0 C 8,3 C 8,3 C 0,2 C 75 % 99 % 1022,4 hPa 0,0 l/m 0,8 km/h (0 Bft) W 270 0 min 3,9 C 8,3 C 0,0 km/h (0 Bft)
17.02.2023 00:50 8,1 C 7,2 C 73,0 C 8,2 C 8,2 C 0,1 C 75 % 99 % 1022,4 hPa 0,0 l/m 0,6 km/h (0 Bft) W-SW 247 0 min 3,9 C 8,2 C 0,0 km/h (0 Bft)
17.02.2023 00:55 8,1 C 7,2 C 73,0 C 8,1 C 8,1 C 0,0 C 75 % 99 % 1022,4 hPa 0,0 l/m 0,6 km/h (0 Bft) SW 225 0 min 3,9 C 8,1 C 9,3 km/h (2 Bft)
17.02.2023 01:00 8,0 C 7,2 C 73,0 C 8,0 C 7,9 C 0,0 C 75 % 99 % 1022,4 hPa 0,0 l/m 0,6 km/h (0 Bft) O-NO 67 0 min 3,8 C 7,9 C 2,4 km/h (1 Bft)
17.02.2023 01:05 8,0 C 7,2 C 73,0 C 7,9 C 7,8 C 0,0 C 76 % 99 % 1021,9 hPa 0,0 l/m 0,8 km/h (0 Bft) SW 225 0 min 4,0 C 7,8 C 3,5 km/h (1 Bft)
17.02.2023 01:10 8,1 C 7,3 C 73,0 C 8,0 C 7,7 C 0,0 C 76 % 99 % 1021,9 hPa 0,0 l/m 0,8 km/h (0 Bft) S-SW 202 0 min 4,1 C 7,7 C 0,0 km/h (0 Bft)
17.02.2023 01:15 8,0 C 7,3 C 73,0 C 7,8 C 7,5 C 0,0 C 76 % 99 % 1021,9 hPa 0,0 l/m 0,6 km/h (0 Bft) O-SO 112 0 min 4,0 C 7,5 C 1,9 km/h (1 Bft)
17.02.2023 01:20 7,9 C 7,3 C 73,0 C 7,7 C 7,3 C 0,0 C 76 % 99 % 1021,9 hPa 0,0 l/m 0,6 km/h (0 Bft) S-SW 202 0 min 3,9 C 7,3 C 0,0 km/h (0 Bft)
17.02.2023 01:25 7,9 C 7,3 C 73,0 C 7,7 C 7,2 C 0,0 C 76 % 99 % 1021,3 hPa 0,0 l/m 1,4 km/h (1 Bft) NO 45 0 min 3,9 C 7,2 C 11,9 km/h (2 Bft)
17.02.2023 01:30 7,9 C 7,3 C 73,0 C 7,7 C 7,4 C 0,0 C 77 % 99 % 1021,3 hPa 0,0 l/m 1,6 km/h (1 Bft) SO 135 0 min 4,1 C 7,4 C 0,0 km/h (0 Bft)
17.02.2023 01:35 7,9 C 7,3 C 73,0 C 7,9 C 7,8 C 0,0 C 77 % 99 % 1021,3 hPa 0,0 l/m 1,9 km/h (1 Bft) W-SW 247 0 min 4,1 C 7,8 C 8,5 km/h (2 Bft)
17.02.2023 01:40 7,9 C 7,3 C 66,7 C 7,9 C 7,8 C 0,0 C 77 % 99 % 1021,3 hPa 0,0 l/m 1,9 km/h (1 Bft) W-SW 247 0 min 4,1 C 7,8 C 4,0 km/h (1 Bft)
17.02.2023 01:45 7,9 C 7,3 C 66,7 C 8,0 C 8,0 C 0,1 C 77 % 99 % 1021,5 hPa 0,0 l/m 1,1 km/h (1 Bft) S-SW 202 0 min 4,1 C 8,0 C 2,6 km/h (1 Bft)
17.02.2023 01:50 7,9 C 7,3 C 66,7 C 8,1 C 8,1 C 0,2 C 77 % 99 % 1021,5 hPa 0,0 l/m 0,5 km/h (0 Bft) NW 315 0 min 4,1 C 8,1 C 0,0 km/h (0 Bft)
17.02.2023 01:55 8,0 C 7,3 C 66,7 C 8,1 C 8,1 C 0,1 C 77 % 99 % 1021,5 hPa 0,0 l/m 0,5 km/h (0 Bft) NO 45 0 min 4,2 C 8,1 C 1,6 km/h (1 Bft)
17.02.2023 02:00 8,0 C 7,3 C 66,7 C 8,1 C 8,1 C 0,1 C 77 % 99 % 1021,5 hPa 0,0 l/m 0,5 km/h (0 Bft) NW 315 0 min 4,2 C 8,1 C 0,0 km/h (0 Bft)
17.02.2023 02:05 8,1 C 7,3 C 66,7 C 8,3 C 8,3 C 0,2 C 77 % 99 % 1021,3 hPa 0,0 l/m 1,1 km/h (1 Bft) W 270 0 min 4,3 C 8,3 C 0,0 km/h (0 Bft)
17.02.2023 02:10 8,0 C 7,3 C 66,7 C 8,3 C 8,3 C 0,3 C 76 % 99 % 1021,3 hPa 0,0 l/m 1,3 km/h (1 Bft) NW 315 0 min 4,0 C 8,3 C 0,0 km/h (0 Bft)
17.02.2023 02:15 8,0 C 7,3 C 66,3 C 8,3 C 8,3 C 0,3 C 76 % 99 % 1021,3 hPa 0,0 l/m 1,0 km/h (0 Bft) N-NO 22 0 min 4,0 C 8,3 C 2,4 km/h (1 Bft)
17.02.2023 02:20 8,1 C 7,3 C 66,3 C 8,3 C 8,3 C 0,2 C 77 % 99 % 1021,3 hPa 0,0 l/m 1,0 km/h (0 Bft) SW 225 0 min 4,3 C 8,3 C 0,0 km/h (0 Bft)
17.02.2023 02:25 8,1 C 7,3 C 66,3 C 8,3 C 8,3 C 0,2 C 76 % 99 % 1020,9 hPa 0,0 l/m 0,5 km/h (0 Bft) SW 225 0 min 4,1 C 8,3 C 0,0 km/h (0 Bft)
17.02.2023 02:30 8,1 C 7,3 C 66,3 C 8,3 C 8,3 C 0,2 C 76 % 99 % 1020,9 hPa 0,0 l/m 0,2 km/h (0 Bft) W-SW 247 0 min 4,1 C 8,3 C 0,0 km/h (0 Bft)
17.02.2023 02:35 8,1 C 7,3 C 66,3 C 8,4 C 8,4 C 0,3 C 77 % 99 % 1020,9 hPa 0,0 l/m 0,3 km/h (0 Bft) S-SO 157 0 min 4,3 C 8,4 C 0,0 km/h (0 Bft)
17.02.2023 02:40 8,1 C 7,3 C 66,3 C 8,5 C 8,5 C 0,4 C 76 % 99 % 1020,9 hPa 0,0 l/m 0,5 km/h (0 Bft) S-SW 202 0 min 4,1 C 8,5 C 0,0 km/h (0 Bft)
17.02.2023 02:45 8,3 C 7,3 C 66,3 C 8,5 C 8,5 C 0,2 C 76 % 99 % 1020,9 hPa 0,0 l/m 0,6 km/h (0 Bft) S-SO 157 0 min 4,3 C 8,5 C 4,2 km/h (1 Bft)
17.02.2023 02:50 8,3 C 7,3 C 66,3 C 8,5 C 8,5 C 0,2 C 76 % 99 % 1020,9 hPa 0,0 l/m 1,4 km/h (1 Bft) O-SO 112 0 min 4,3 C 8,5 C 7,2 km/h (2 Bft)
17.02.2023 02:55 8,3 C 7,3 C 64,5 C 8,6 C 8,6 C 0,3 C 76 % 99 % 1020,9 hPa 0,0 l/m 1,6 km/h (1 Bft) SO 135 0 min 4,3 C 8,6 C 0,0 km/h (0 Bft)
17.02.2023 03:00 8,3 C 7,3 C 64,5 C 8,5 C 8,5 C 0,2 C 76 % 99 % 1020,9 hPa 0,0 l/m 1,0 km/h (0 Bft) O-SO 112 0 min 4,3 C 8,5 C 7,6 km/h (2 Bft)
17.02.2023 03:05 8,3 C 7,3 C 64,5 C 8,5 C 8,5 C 0,2 C 76 % 99 % 1020,6 hPa 0,0 l/m 0,5 km/h (0 Bft) N-NO 22 0 min 4,3 C 8,5 C 0,0 km/h (0 Bft)
17.02.2023 03:10 8,3 C 7,3 C 64,5 C 8,5 C 8,5 C 0,2 C 76 % 99 % 1020,6 hPa 0,0 l/m 0,3 km/h (0 Bft) O 90 0 min 4,3 C 8,5 C 0,0 km/h (0 Bft)
17.02.2023 03:15 8,2 C 7,3 C 64,5 C 8,2 C 8,1 C 0,0 C 76 % 99 % 1020,6 hPa 0,0 l/m 0,3 km/h (0 Bft) NO 45 0 min 4,2 C 8,1 C 0,0 km/h (0 Bft)
17.02.2023 03:20 8,3 C 7,3 C 64,5 C 8,2 C 8,1 C 0,0 C 76 % 99 % 1020,6 hPa 0,0 l/m 0,5 km/h (0 Bft) W-SW 247 0 min 4,3 C 8,1 C 2,6 km/h (1 Bft)
17.02.2023 03:25 8,2 C 7,3 C 64,5 C 8,2 C 8,2 C 0,0 C 76 % 99 % 1020,1 hPa 0,0 l/m 0,3 km/h (0 Bft) O-SO 112 0 min 4,2 C 8,2 C 0,0 km/h (0 Bft)
17.02.2023 03:30 8,2 C 7,3 C 64,5 C 8,3 C 8,3 C 0,1 C 77 % 99 % 1020,1 hPa 0,0 l/m 0,5 km/h (0 Bft) W 270 0 min 4,4 C 8,3 C 0,0 km/h (0 Bft)
17.02.2023 03:35 8,3 C 7,3 C 64,5 C 8,5 C 8,5 C 0,2 C 77 % 99 % 1020,1 hPa 0,0 l/m 0,8 km/h (0 Bft) SW 225 0 min 4,5 C 8,5 C 6,1 km/h (2 Bft)
17.02.2023 03:40 8,4 C 7,3 C 64,5 C 8,6 C 8,6 C 0,2 C 77 % 99 % 1020,1 hPa 0,0 l/m 1,6 km/h (1 Bft) S 180 0 min 4,6 C 8,6 C 3,9 km/h (1 Bft)
17.02.2023 03:45 8,4 C 7,2 C 64,5 C 8,7 C 8,7 C 0,3 C 76 % 99 % 1020,0 hPa 0,0 l/m 2,4 km/h (1 Bft) S-SW 202 0 min 4,4 C 8,7 C 8,0 km/h (2 Bft)
17.02.2023 03:50 8,5 C 7,2 C 64,5 C 8,8 C 8,8 C 0,3 C 76 % 99 % 1020,0 hPa 0,0 l/m 2,3 km/h (1 Bft) SW 225 0 min 4,5 C 8,8 C 6,9 km/h (2 Bft)
17.02.2023 03:55 8,5 C 7,2 C 64,5 C 8,9 C 8,9 C 0,4 C 76 % 99 % 1020,0 hPa 0,0 l/m 3,1 km/h (1 Bft) W 270 0 min 4,5 C 8,9 C 8,5 km/h (2 Bft)
17.02.2023 04:00 8,6 C 7,2 C 64,5 C 8,9 C 8,9 C 0,3 C 76 % 99 % 1020,0 hPa 0,0 l/m 3,1 km/h (1 Bft) SO 135 0 min 4,6 C 8,9 C 6,0 km/h (2 Bft)
17.02.2023 04:05 8,7 C 7,4 C 64,5 C 9,0 C 9,0 C 0,3 C 76 % 99 % 1020,2 hPa 0,0 l/m 2,7 km/h (1 Bft) S 180 0 min 4,7 C 9,0 C 10,8 km/h (2 Bft)
17.02.2023 04:10 8,6 C 7,4 C 64,5 C 9,0 C 9,0 C 0,4 C 76 % 99 % 1020,2 hPa 0,0 l/m 2,1 km/h (1 Bft) W 270 0 min 4,6 C 9,0 C 0,0 km/h (0 Bft)
17.02.2023 04:15 8,7 C 7,4 C 64,5 C 9,1 C 9,1 C 0,4 C 76 % 99 % 1020,2 hPa 0,0 l/m 2,4 km/h (1 Bft) SW 225 0 min 4,7 C 9,1 C 4,2 km/h (1 Bft)
17.02.2023 04:20 8,7 C 7,4 C 64,5 C 9,0 C 9,0 C 0,3 C 76 % 99 % 1020,2 hPa 0,0 l/m 2,3 km/h (1 Bft) S-SW 202 0 min 4,7 C 9,0 C 3,2 km/h (1 Bft)
17.02.2023 04:25 8,7 C 7,4 C 64,5 C 9,1 C 9,1 C 0,4 C 76 % 99 % 1019,9 hPa 0,0 l/m 2,7 km/h (1 Bft) W-SW 247 0 min 4,7 C 9,1 C 6,1 km/h (2 Bft)
17.02.2023 04:30 8,7 C 7,4 C 64,5 C 9,1 C 9,1 C 0,4 C 76 % 99 % 1019,9 hPa 0,0 l/m 3,5 km/h (1 Bft) SW 225 0 min 4,7 C 9,1 C 0,0 km/h (0 Bft)
17.02.2023 04:35 8,7 C 7,4 C 64,5 C 9,0 C 9,0 C 0,3 C 76 % 99 % 1019,9 hPa 0,0 l/m 2,9 km/h (1 Bft) SW 225 0 min 4,7 C 9,0 C 1,8 km/h (1 Bft)
17.02.2023 04:40 8,7 C 7,4 C 64,5 C 9,0 C 9,0 C 0,3 C 76 % 99 % 1019,9 hPa 0,0 l/m 2,1 km/h (1 Bft) SW 225 0 min 4,7 C 9,0 C 5,6 km/h (1 Bft)
17.02.2023 04:45 8,7 C 7,4 C 63,7 C 9,0 C 9,0 C 0,3 C 76 % 99 % 1019,5 hPa 0,0 l/m 2,9 km/h (1 Bft) W-NW 292 0 min 4,7 C 9,0 C 0,0 km/h (0 Bft)
17.02.2023 04:50 8,7 C 7,4 C 63,7 C 9,0 C 9,0 C 0,3 C 76 % 99 % 1019,5 hPa 0,0 l/m 3,5 km/h (1 Bft) W-SW 247 0 min 4,7 C 9,0 C 1,8 km/h (1 Bft)
17.02.2023 04:55 8,7 C 7,4 C 63,7 C 8,7 C 8,7 C 0,0 C 77 % 99 % 1019,5 hPa 0,0 l/m 4,7 km/h (1 Bft) SW 225 0 min 4,9 C 8,4 C 15,6 km/h (3 Bft)
17.02.2023 05:00 8,7 C 7,4 C 63,7 C 8,6 C 8,4 C 0,0 C 77 % 99 % 1019,5 hPa 0,0 l/m 5,5 km/h (1 Bft) S 180 0 min 4,9 C 7,8 C 6,1 km/h (2 Bft)
17.02.2023 05:05 8,6 C 7,4 C 63,7 C 8,6 C 8,6 C 0,0 C 77 % 99 % 1020,0 hPa 0,0 l/m 5,1 km/h (1 Bft) S 180 0 min 4,8 C 8,1 C 18,2 km/h (3 Bft)
17.02.2023 05:10 8,7 C 7,4 C 63,7 C 8,7 C 8,7 C 0,0 C 77 % 99 % 1020,0 hPa 0,0 l/m 4,3 km/h (1 Bft) SW 225 0 min 4,9 C 8,7 C 9,8 km/h (2 Bft)
17.02.2023 05:15 8,7 C 7,4 C 63,7 C 8,7 C 8,6 C 0,0 C 77 % 99 % 1020,0 hPa 0,0 l/m 4,8 km/h (1 Bft) SW 225 0 min 4,9 C 8,2 C 11,3 km/h (2 Bft)
17.02.2023 05:20 8,6 C 7,4 C 62,3 C 8,6 C 8,5 C 0,0 C 78 % 99 % 1020,0 hPa 0,0 l/m 5,0 km/h (1 Bft) W-NW 292 0 min 5,0 C 8,1 C 5,8 km/h (2 Bft)
17.02.2023 05:25 8,5 C 7,4 C 62,3 C 8,7 C 8,7 C 0,2 C 78 % 99 % 1019,3 hPa 0,0 l/m 4,0 km/h (1 Bft) O-SO 112 0 min 4,9 C 8,7 C 0,0 km/h (0 Bft)
17.02.2023 05:30 8,5 C 7,4 C 62,3 C 8,8 C 8,8 C 0,3 C 78 % 99 % 1019,3 hPa 0,0 l/m 3,2 km/h (1 Bft) NW 315 0 min 4,9 C 8,8 C 6,4 km/h (2 Bft)
17.02.2023 05:35 8,5 C 7,4 C 62,3 C 8,8 C 8,8 C 0,3 C 78 % 99 % 1019,3 hPa 0,0 l/m 2,4 km/h (1 Bft) SW 225 0 min 4,9 C 8,8 C 9,0 km/h (2 Bft)
17.02.2023 05:40 8,5 C 7,4 C 62,3 C 8,8 C 8,8 C 0,3 C 79 % 99 % 1019,3 hPa 0,0 l/m 2,7 km/h (1 Bft) O-NO 67 0 min 5,1 C 8,8 C 4,3 km/h (1 Bft)
17.02.2023 05:45 8,5 C 7,5 C 62,3 C 8,8 C 8,8 C 0,3 C 79 % 99 % 1019,6 hPa 0,0 l/m 2,9 km/h (1 Bft) S-SW 202 0 min 5,1 C 8,8 C 2,3 km/h (1 Bft)
17.02.2023 05:50 8,5 C 7,5 C 62,3 C 8,8 C 8,8 C 0,3 C 79 % 99 % 1019,6 hPa 0,0 l/m 2,4 km/h (1 Bft) SW 225 0 min 5,1 C 8,8 C 1,9 km/h (1 Bft)
17.02.2023 05:55 8,5 C 7,5 C 63,9 C 8,8 C 8,8 C 0,3 C 79 % 99 % 1019,6 hPa 0,0 l/m 1,4 km/h (1 Bft) W-NW 292 0 min 5,1 C 8,8 C 0,0 km/h (0 Bft)
17.02.2023 06:00 8,5 C 7,5 C 63,9 C 8,8 C 8,8 C 0,3 C 79 % 99 % 1019,6 hPa 0,0 l/m 0,5 km/h (0 Bft) S 180 0 min 5,1 C 8,8 C 2,6 km/h (1 Bft)
17.02.2023 06:05 8,5 C 7,5 C 63,9 C 8,8 C 8,8 C 0,3 C 79 % 99 % 1019,1 hPa 0,0 l/m 1,0 km/h (0 Bft) W-SW 247 0 min 5,1 C 8,8 C 8,2 km/h (2 Bft)
17.02.2023 06:10 8,5 C 7,5 C 63,9 C 8,8 C 8,8 C 0,3 C 79 % 99 % 1019,1 hPa 0,0 l/m 1,9 km/h (1 Bft) S-SO 157 0 min 5,1 C 8,8 C 5,8 km/h (2 Bft)
17.02.2023 06:15 8,5 C 7,5 C 63,9 C 8,8 C 8,8 C 0,3 C 79 % 99 % 1019,1 hPa 0,0 l/m 2,1 km/h (1 Bft) S 180 0 min 5,1 C 8,8 C 3,2 km/h (1 Bft)
17.02.2023 06:20 8,5 C 7,5 C 63,9 C 8,8 C 8,8 C 0,3 C 80 % 99 % 1019,1 hPa 0,0 l/m 1,6 km/h (1 Bft) W 270 0 min 5,3 C 8,8 C 2,7 km/h (1 Bft)
17.02.2023 06:25 8,5 C 7,5 C 63,9 C 8,8 C 8,8 C 0,3 C 80 % 99 % 1019,1 hPa 0,0 l/m 1,8 km/h (1 Bft) SO 135 0 min 5,3 C 8,8 C 1,8 km/h (1 Bft)
17.02.2023 06:30 8,5 C 7,5 C 63,9 C 8,8 C 8,8 C 0,3 C 80 % 99 % 1019,1 hPa 0,0 l/m 1,9 km/h (1 Bft) S-SW 202 0 min 5,3 C 8,8 C 8,2 km/h (2 Bft)
17.02.2023 06:35 8,5 C 7,5 C 67,4 C 8,8 C 8,8 C 0,3 C 80 % 99 % 1019,1 hPa 0,0 l/m 1,1 km/h (1 Bft) S-SW 202 0 min 5,3 C 8,8 C 5,0 km/h (1 Bft)
17.02.2023 06:40 8,4 C 7,5 C 67,4 C 8,8 C 8,8 C 0,4 C 80 % 99 % 1019,1 hPa 0,0 l/m 1,0 km/h (0 Bft) S 180 0 min 5,2 C 8,8 C 3,7 km/h (1 Bft)
17.02.2023 06:45 8,4 C 7,5 C 67,4 C 8,8 C 8,8 C 0,4 C 80 % 99 % 1019,1 hPa 0,0 l/m 1,1 km/h (1 Bft) NO 45 0 min 5,2 C 8,8 C 0,0 km/h (0 Bft)
17.02.2023 06:50 8,4 C 7,5 C 67,4 C 8,8 C 8,8 C 0,4 C 80 % 99 % 1019,1 hPa 0,0 l/m 1,4 km/h (1 Bft) S 180 0 min 5,2 C 8,8 C 6,0 km/h (2 Bft)
17.02.2023 06:55 8,4 C 7,5 C 67,4 C 8,8 C 8,8 C 0,4 C 81 % 99 % 1019,1 hPa 0,0 l/m 1,8 km/h (1 Bft) SW 225 0 min 5,3 C 8,8 C 10,1 km/h (2 Bft)
17.02.2023 07:00 8,5 C 7,5 C 67,4 C 8,8 C 8,8 C 0,3 C 81 % 99 % 1019,1 hPa 0,0 l/m 2,6 km/h (1 Bft) S-SO 157 0 min 5,4 C 8,8 C 0,0 km/h (0 Bft)
17.02.2023 07:05 8,5 C 7,6 C 67,4 C 8,5 C 8,4 C 0,0 C 81 % 99 % 1018,9 hPa 0,0 l/m 4,7 km/h (1 Bft) S-SW 202 0 min 5,4 C 8,0 C 6,4 km/h (2 Bft)
17.02.2023 07:10 8,5 C 7,6 C 58,7 C 8,5 C 8,4 C 0,0 C 81 % 99 % 1018,9 hPa 0,0 l/m 4,7 km/h (1 Bft) S-SO 157 0 min 5,4 C 8,0 C 4,0 km/h (1 Bft)
17.02.2023 07:15 8,5 C 7,6 C 58,7 C 8,8 C 8,8 C 0,3 C 81 % 99 % 1018,9 hPa 0,0 l/m 3,2 km/h (1 Bft) W 270 0 min 5,4 C 8,8 C 4,0 km/h (1 Bft)
17.02.2023 07:20 8,5 C 7,6 C 58,7 C 8,8 C 8,8 C 0,3 C 81 % 99 % 1018,9 hPa 0,0 l/m 2,1 km/h (1 Bft) S-SW 202 0 min 5,4 C 8,8 C 5,3 km/h (1 Bft)
17.02.2023 07:25 8,5 C 7,6 C 58,7 C 8,7 C 8,7 C 0,2 C 81 % 99 % 1018,9 hPa 0,0 l/m 4,0 km/h (1 Bft) S-SW 202 0 min 5,4 C 8,7 C 9,8 km/h (2 Bft)
17.02.2023 07:30 8,5 C 7,6 C 58,7 C 8,5 C 8,4 C 0,0 C 81 % 99 % 1018,9 hPa 0,0 l/m 4,8 km/h (1 Bft) S-SW 202 0 min 5,4 C 8,0 C 11,6 km/h (2 Bft)
17.02.2023 07:35 8,5 C 7,6 C 58,7 C 8,7 C 8,7 C 0,2 C 81 % 99 % 1018,9 hPa 0,0 l/m 4,0 km/h (1 Bft) S-SW 202 0 min 5,4 C 8,7 C 0,0 km/h (0 Bft)
17.02.2023 07:40 8,5 C 7,6 C 58,7 C 8,5 C 8,5 C 0,0 C 81 % 99 % 1018,9 hPa 0,0 l/m 4,5 km/h (1 Bft) SW 225 0 min 5,4 C 8,5 C 8,7 km/h (2 Bft)
17.02.2023 07:45 8,5 C 7,6 C 60,2 C 8,5 C 8,4 C 0,0 C 81 % 99 % 1019,6 hPa 0,0 l/m 5,1 km/h (1 Bft) S-SW 202 0 min 5,4 C 7,9 C 5,1 km/h (1 Bft)
17.02.2023 07:50 8,5 C 7,6 C 60,2 C 8,5 C 8,4 C 0,0 C 81 % 99 % 1019,6 hPa 0,0 l/m 5,3 km/h (1 Bft) S-SW 202 0 min 5,4 C 7,8 C 12,1 km/h (2 Bft)
17.02.2023 07:55 8,5 C 7,6 C 60,2 C 8,7 C 8,7 C 0,2 C 81 % 99 % 1019,6 hPa 0,0 l/m 4,3 km/h (1 Bft) SO 135 0 min 5,4 C 8,7 C 3,7 km/h (1 Bft)
17.02.2023 08:00 8,5 C 7,6 C 60,2 C 8,9 C 8,9 C 0,4 C 81 % 99 % 1019,6 hPa 0,0 l/m 3,7 km/h (1 Bft) W-SW 247 0 min 5,4 C 8,9 C 9,5 km/h (2 Bft)
17.02.2023 08:05 8,5 C 7,6 C 60,2 C 8,9 C 8,9 C 0,4 C 81 % 99 % 1019,6 hPa 0,0 l/m 3,4 km/h (1 Bft) W-SW 247 0 min 5,4 C 8,9 C 10,1 km/h (2 Bft)
17.02.2023 08:10 8,6 C 7,6 C 58,7 C 9,0 C 9,0 C 0,4 C 81 % 99 % 1019,6 hPa 0,0 l/m 3,7 km/h (1 Bft) O-SO 112 0 min 5,5 C 9,0 C 2,3 km/h (1 Bft)
17.02.2023 08:15 8,7 C 7,6 C 58,7 C 8,9 C 8,9 C 0,2 C 81 % 99 % 1019,6 hPa 0,0 l/m 4,2 km/h (1 Bft) N-NW 337 0 min 5,6 C 8,9 C 1,9 km/h (1 Bft)
17.02.2023 08:20 8,7 C 7,6 C 60,5 C 9,1 C 9,1 C 0,4 C 81 % 99 % 1019,6 hPa 0,0 l/m 3,1 km/h (1 Bft) S-SO 157 0 min 5,6 C 9,1 C 7,7 km/h (2 Bft)
17.02.2023 08:25 8,7 C 7,7 C 60,5 C 9,1 C 9,1 C 0,4 C 81 % 99 % 1019,2 hPa 0,0 l/m 1,8 km/h (1 Bft) S-SO 157 0 min 5,6 C 9,1 C 14,2 km/h (3 Bft)
17.02.2023 08:30 8,7 C 7,7 C 60,5 C 9,1 C 9,1 C 0,4 C 82 % 99 % 1019,2 hPa 0,0 l/m 3,1 km/h (1 Bft) NW 315 0 min 5,8 C 9,1 C 3,5 km/h (1 Bft)
17.02.2023 08:35 8,7 C 7,7 C 60,5 C 9,2 C 9,2 C 0,5 C 82 % 99 % 1019,2 hPa 0,0 l/m 3,7 km/h (1 Bft) S 180 0 min 5,8 C 9,2 C 4,2 km/h (1 Bft)
17.02.2023 08:40 8,7 C 7,7 C 60,5 C 9,2 C 9,2 C 0,5 C 82 % 99 % 1019,2 hPa 0,0 l/m 2,6 km/h (1 Bft) SW 225 0 min 5,8 C 9,2 C 0,0 km/h (0 Bft)
17.02.2023 08:45 8,7 C 7,7 C 60,5 C 9,3 C 9,3 C 0,6 C 82 % 99 % 1018,8 hPa 0,0 l/m 1,9 km/h (1 Bft) NW 315 0 min 5,8 C 9,3 C 5,8 km/h (2 Bft)
17.02.2023 08:50 8,8 C 7,7 C 60,5 C 9,3 C 9,3 C 0,5 C 82 % 99 % 1018,8 hPa 0,0 l/m 2,4 km/h (1 Bft) O 90 0 min 5,9 C 9,3 C 3,5 km/h (1 Bft)
17.02.2023 08:55 8,8 C 7,7 C 60,5 C 9,3 C 9,3 C 0,5 C 82 % 99 % 1018,8 hPa 0,0 l/m 2,1 km/h (1 Bft) O-SO 112 0 min 5,9 C 9,3 C 3,4 km/h (1 Bft)
17.02.2023 09:00 8,8 C 7,7 C 62,0 C 9,3 C 9,3 C 0,5 C 82 % 99 % 1018,8 hPa 0,0 l/m 2,9 km/h (1 Bft) W-SW 247 0 min 5,9 C 9,3 C 6,0 km/h (2 Bft)
17.02.2023 09:05 8,8 C 7,7 C 62,0 C 9,1 C 9,1 C 0,3 C 82 % 99 % 1018,8 hPa 0,0 l/m 5,0 km/h (1 Bft) W-SW 247 0 min 5,9 C 8,7 C 18,3 km/h (3 Bft)
17.02.2023 09:10 8,9 C 7,7 C 62,0 C 9,2 C 9,2 C 0,3 C 81 % 99 % 1018,8 hPa 0,0 l/m 4,8 km/h (1 Bft) S-SO 157 0 min 5,8 C 8,9 C 14,3 km/h (3 Bft)
17.02.2023 09:15 8,9 C 7,7 C 62,0 C 9,5 C 9,5 C 0,6 C 81 % 99 % 1018,8 hPa 0,0 l/m 4,0 km/h (1 Bft) SW 225 0 min 5,8 C 9,5 C 8,0 km/h (2 Bft)
17.02.2023 09:21 9,1 C 7,7 C 62,0 C 9,6 C 9,6 C 0,5 C 81 % 99 % 1019,1 hPa 0,0 l/m 3,1 km/h (1 Bft) N-NW 337 0 min 6,0 C 9,6 C 3,1 km/h (1 Bft)
17.02.2023 09:25 9,1 C 7,7 C 62,0 C 9,6 C 9,6 C 0,5 C 81 % 99 % 1019,1 hPa 0,0 l/m 3,1 km/h (1 Bft) N-NW 337 0 min 6,0 C 9,6 C 3,1 km/h (1 Bft)
17.02.2023 09:32 9,1 C 7,7 C 59,4 C 9,8 C 9,8 C 0,7 C 81 % 99 % 1019,1 hPa 0,0 l/m 4,0 km/h (1 Bft) W-SW 247 0 min 6,0 C 9,8 C 11,6 km/h (2 Bft)
17.02.2023 09:33 9,1 C 7,7 C 59,4 C 9,8 C 9,8 C 0,7 C 81 % 99 % 1019,1 hPa 0,0 l/m 4,0 km/h (1 Bft) W-SW 247 0 min 6,0 C 9,8 C 11,6 km/h (2 Bft)
17.02.2023 09:34 9,1 C 7,7 C 59,4 C 9,8 C 9,8 C 0,7 C 81 % 99 % 1019,1 hPa 0,0 l/m 4,0 km/h (1 Bft) W-SW 247 0 min 6,0 C 9,8 C 11,6 km/h (2 Bft)
17.02.2023 09:35 9,1 C 7,7 C 59,4 C 9,8 C 9,8 C 0,7 C 81 % 99 % 1019,1 hPa 0,0 l/m 4,0 km/h (1 Bft) W-SW 247 0 min 6,0 C 9,8 C 11,6 km/h (2 Bft)
17.02.2023 09:36 9,2 C 7,7 C 59,4 C 9,8 C 9,8 C 0,6 C 81 % 99 % 1019,1 hPa 0,0 l/m 4,0 km/h (1 Bft) NW 315 0 min 6,1 C 9,8 C 2,3 km/h (1 Bft)
17.02.2023 09:38 9,2 C 7,7 C 59,4 C 9,8 C 9,8 C 0,6 C 81 % 99 % 1019,1 hPa 0,0 l/m 4,0 km/h (1 Bft) NW 315 0 min 6,1 C 9,8 C 2,3 km/h (1 Bft)
17.02.2023 09:40 9,2 C 7,7 C 59,4 C 9,8 C 9,8 C 0,6 C 81 % 99 % 1019,1 hPa 0,0 l/m 4,0 km/h (1 Bft) NW 315 0 min 6,1 C 9,8 C 2,3 km/h (1 Bft)
17.02.2023 09:45 9,2 C 7,7 C 59,4 C 9,4 C 9,4 C 0,2 C 81 % 99 % 1018,4 hPa 0,0 l/m 5,6 km/h (1 Bft) O-NO 67 0 min 6,1 C 8,9 C 21,6 km/h (4 Bft)
17.02.2023 09:50 9,3 C 7,7 C 59,4 C 9,7 C 9,7 C 0,4 C 81 % 99 % 1018,4 hPa 0,0 l/m 5,0 km/h (1 Bft) S-SO 157 0 min 6,2 C 9,4 C 11,1 km/h (2 Bft)
17.02.2023 09:55 9,3 C 7,8 C 59,4 C 9,6 C 9,6 C 0,3 C 81 % 99 % 1018,4 hPa 0,0 l/m 4,7 km/h (1 Bft) W 270 0 min 6,2 C 9,4 C 4,7 km/h (1 Bft)
17.02.2023 10:00 9,2 C 7,8 C 59,4 C 9,8 C 9,8 C 0,6 C 81 % 99 % 1018,4 hPa 0,0 l/m 3,9 km/h (1 Bft) SO 135 0 min 6,1 C 9,8 C 1,8 km/h (1 Bft)
17.02.2023 10:05 9,3 C 7,8 C 59,4 C 10,0 C 10,0 C 0,7 C 81 % 99 % 1018,9 hPa 0,0 l/m 2,6 km/h (1 Bft) W-NW 292 0 min 6,2 C 10,0 C 6,8 km/h (2 Bft)
17.02.2023 10:11 9,5 C 7,8 C 61,1 C 10,7 C 10,7 C 1,2 C 82 % 99 % 1018,9 hPa 0,0 l/m 5,3 km/h (1 Bft) N 0 0 min 6,6 C 10,7 C 8,4 km/h (2 Bft)
17.02.2023 10:26 9,7 C 7,8 C 61,1 C 10,9 C 10,9 C 1,2 C 81 % 99 % 1018,9 hPa 0,0 l/m 3,5 km/h (1 Bft) SO 135 0 min 6,6 C 10,9 C 4,7 km/h (1 Bft)
17.02.2023 10:42 9,9 C 7,8 C 65,9 C 9,8 C 9,7 C 0,0 C 80 % 99 % 1018,9 hPa 0,0 l/m 7,6 km/h (2 Bft) S-SO 157 0 min 6,6 C 8,7 C 8,4 km/h (2 Bft)
17.02.2023 10:50 9,9 C 7,8 C 65,9 C 9,8 C 9,6 C 0,0 C 80 % 99 % 1018,9 hPa 0,0 l/m 6,6 km/h (2 Bft) S 180 0 min 6,6 C 8,9 C 31,7 km/h (5 Bft)
17.02.2023 10:55 9,9 C 7,8 C 65,9 C 9,8 C 9,7 C 0,0 C 81 % 99 % 1018,9 hPa 0,0 l/m 5,3 km/h (1 Bft) W-SW 247 0 min 6,8 C 9,3 C 15,0 km/h (3 Bft)
17.02.2023 11:00 9,9 C 7,8 C 65,9 C 9,7 C 9,3 C 0,0 C 81 % 99 % 1018,9 hPa 0,0 l/m 6,9 km/h (2 Bft) SW 225 0 min 6,8 C 8,4 C 9,5 km/h (2 Bft)
17.02.2023 11:05 10,0 C 7,8 C 65,9 C 9,9 C 9,7 C 0,0 C 81 % 99 % 1018,4 hPa 0,0 l/m 7,6 km/h (2 Bft) S 180 0 min 6,9 C 8,7 C 11,6 km/h (2 Bft)
17.02.2023 11:10 10,1 C 7,8 C 65,9 C 10,2 C 10,2 C 0,1 C 81 % 99 % 1018,4 hPa 0,0 l/m 7,4 km/h (2 Bft) N 360 0 min 7,0 C 10,2 C 16,3 km/h (3 Bft)
17.02.2023 11:15 10,1 C 7,8 C 65,9 C 10,9 C 10,9 C 0,8 C 81 % 99 % 1018,4 hPa 0,0 l/m 6,4 km/h (2 Bft) SW 225 0 min 7,0 C 10,9 C 8,2 km/h (2 Bft)
17.02.2023 11:20 10,1 C 7,8 C 65,9 C 11,0 C 11,0 C 0,9 C 81 % 99 % 1018,4 hPa 0,0 l/m 7,4 km/h (2 Bft) S 180 0 min 7,0 C 11,0 C 12,7 km/h (3 Bft)
17.02.2023 11:25 10,2 C 7,9 C 69,7 C 11,1 C 10,8 C 0,9 C 80 % 99 % 1017,5 hPa 0,0 l/m 8,2 km/h (2 Bft) S-SO 157 0 min 6,9 C 10,8 C 5,3 km/h (1 Bft)
17.02.2023 11:30 10,3 C 7,9 C 69,7 C 10,9 C 10,9 C 0,6 C 80 % 99 % 1017,5 hPa 0,0 l/m 7,6 km/h (2 Bft) W-SW 247 0 min 7,0 C 10,9 C 3,5 km/h (1 Bft)
17.02.2023 11:35 10,3 C 7,9 C 69,7 C 10,9 C 10,9 C 0,6 C 80 % 99 % 1017,5 hPa 0,0 l/m 8,5 km/h (2 Bft) NO 45 0 min 7,0 C 10,9 C 8,4 km/h (2 Bft)
17.02.2023 11:40 10,4 C 7,9 C 69,7 C 11,3 C 11,1 C 0,9 C 80 % 99 % 1017,5 hPa 0,0 l/m 8,0 km/h (2 Bft) W-SW 247 0 min 7,1 C 11,1 C 11,3 km/h (2 Bft)
17.02.2023 11:45 10,4 C 7,9 C 73,0 C 11,3 C 11,3 C 0,9 C 80 % 99 % 1017,3 hPa 0,0 l/m 7,4 km/h (2 Bft) SO 135 0 min 7,1 C 11,3 C 5,5 km/h (1 Bft)
17.02.2023 11:50 10,5 C 7,9 C 73,0 C 11,3 C 11,3 C 0,8 C 79 % 99 % 1017,3 hPa 0,0 l/m 7,4 km/h (2 Bft) S-SO 157 0 min 7,0 C 11,3 C 11,6 km/h (2 Bft)
17.02.2023 11:55 10,5 C 7,9 C 73,0 C 10,9 C 10,9 C 0,4 C 79 % 99 % 1017,3 hPa 0,0 l/m 7,6 km/h (2 Bft) W-SW 247 0 min 7,0 C 10,9 C 8,4 km/h (2 Bft)
17.02.2023 12:00 10,5 C 7,9 C 69,7 C 10,9 C 10,9 C 0,4 C 79 % 99 % 1017,3 hPa 0,0 l/m 7,2 km/h (2 Bft) SW 225 0 min 7,0 C 10,9 C 15,0 km/h (3 Bft)
17.02.2023 12:05 10,5 C 7,9 C 69,7 C 10,8 C 10,3 C 0,3 C 79 % 99 % 1017,2 hPa 0,0 l/m 8,0 km/h (2 Bft) W-SW 247 0 min 7,0 C 10,3 C 17,5 km/h (3 Bft)
17.02.2023 12:11 10,4 C 7,9 C 69,7 C 10,6 C 10,6 C 0,2 C 79 % 99 % 1017,2 hPa 0,0 l/m 5,6 km/h (1 Bft) N 0 0 min 6,9 C 10,6 C 8,4 km/h (2 Bft)
17.02.2023 12:26 10,6 C 7,9 C 69,7 C 11,7 C 11,7 C 1,1 C 80 % 99 % 1017,2 hPa 0,0 l/m 4,8 km/h (1 Bft) W-SW 247 0 min 7,3 C 11,7 C 12,9 km/h (3 Bft)
17.02.2023 12:41 11,1 C 7,9 C 72,0 C 12,6 C 12,6 C 1,5 C 80 % 99 % 1017,2 hPa 0,0 l/m 6,8 km/h (2 Bft) S 180 0 min 7,8 C 12,6 C 7,9 km/h (2 Bft)
17.02.2023 12:50 11,2 C 7,9 C 72,0 C 12,5 C 12,5 C 1,3 C 79 % 99 % 1017,2 hPa 0,0 l/m 7,4 km/h (2 Bft) S 180 0 min 7,7 C 12,5 C 14,5 km/h (3 Bft)
17.02.2023 12:55 11,2 C 7,9 C 72,0 C 12,4 C 12,1 C 1,2 C 79 % 99 % 1017,2 hPa 0,0 l/m 8,4 km/h (2 Bft) W-SW 247 0 min 7,7 C 12,1 C 8,2 km/h (2 Bft)
17.02.2023 13:00 11,3 C 7,9 C 72,0 C 12,2 C 11,8 C 0,9 C 79 % 99 % 1017,2 hPa 0,0 l/m 9,8 km/h (2 Bft) W-SW 247 0 min 7,8 C 11,8 C 14,3 km/h (3 Bft)
17.02.2023 13:05 11,3 C 7,9 C 72,0 C 11,9 C 11,4 C 0,6 C 79 % 99 % 1016,3 hPa 0,0 l/m 10,9 km/h (2 Bft) N 360 0 min 7,8 C 11,4 C 33,6 km/h (5 Bft)
17.02.2023 13:10 11,4 C 7,9 C 72,0 C 11,9 C 11,6 C 0,5 C 79 % 99 % 1016,3 hPa 0,0 l/m 10,8 km/h (2 Bft) SW 225 0 min 7,9 C 11,6 C 8,9 km/h (2 Bft)
17.02.2023 13:15 11,5 C 7,9 C 73,0 C 12,0 C 11,8 C 0,5 C 79 % 99 % 1016,3 hPa 0,0 l/m 9,8 km/h (2 Bft) S 180 0 min 8,0 C 11,8 C 19,8 km/h (3 Bft)
17.02.2023 13:20 11,5 C 7,9 C 73,0 C 11,8 C 11,8 C 0,3 C 79 % 99 % 1016,3 hPa 0,0 l/m 8,9 km/h (2 Bft) W 270 0 min 8,0 C 11,8 C 5,1 km/h (1 Bft)
17.02.2023 13:25 11,5 C 8,0 C 73,0 C 11,9 C 11,5 C 0,4 C 79 % 99 % 1016,1 hPa 0,0 l/m 9,2 km/h (2 Bft) S 180 0 min 8,0 C 11,5 C 16,4 km/h (3 Bft)
17.02.2023 13:30 11,5 C 8,0 C 73,0 C 11,5 C 11,5 C 0,0 C 79 % 99 % 1016,1 hPa 0,0 l/m 8,5 km/h (2 Bft) S 180 0 min 8,0 C 11,5 C 7,9 km/h (2 Bft)
17.02.2023 13:35 11,4 C 8,0 C 73,0 C 11,6 C 11,3 C 0,2 C 79 % 99 % 1016,1 hPa 0,0 l/m 9,0 km/h (2 Bft) S-SW 202 0 min 7,9 C 11,3 C 9,0 km/h (2 Bft)
17.02.2023 13:40 11,3 C 8,0 C 73,0 C 11,3 C 11,3 C 0,0 C 79 % 99 % 1016,1 hPa 0,0 l/m 9,3 km/h (2 Bft) S 180 0 min 7,8 C 11,3 C 12,1 km/h (2 Bft)
17.02.2023 13:45 11,3 C 8,0 C 73,0 C 11,5 C 11,2 C 0,2 C 79 % 99 % 1016,6 hPa 0,0 l/m 10,0 km/h (2 Bft) S-SW 202 0 min 7,8 C 11,2 C 20,3 km/h (4 Bft)
17.02.2023 13:50 11,3 C 8,0 C 69,0 C 11,7 C 11,6 C 0,4 C 79 % 99 % 1016,6 hPa 0,0 l/m 8,2 km/h (2 Bft) S 180 0 min 7,8 C 11,6 C 7,2 km/h (2 Bft)
17.02.2023 13:55 11,5 C 8,0 C 69,0 C 12,1 C 12,1 C 0,6 C 79 % 99 % 1016,6 hPa 0,0 l/m 7,1 km/h (2 Bft) SW 225 0 min 8,0 C 12,1 C 20,0 km/h (4 Bft)
17.02.2023 14:00 11,5 C 8,0 C 69,0 C 12,3 C 12,3 C 0,8 C 79 % 99 % 1016,6 hPa 0,0 l/m 7,6 km/h (2 Bft) SW 225 0 min 8,0 C 12,3 C 4,0 km/h (1 Bft)
17.02.2023 14:05 11,7 C 8,0 C 69,0 C 12,4 C 12,2 C 0,7 C 79 % 99 % 1016,6 hPa 0,0 l/m 7,9 km/h (2 Bft) S 180 0 min 8,2 C 12,2 C 8,5 km/h (2 Bft)
17.02.2023 14:11 11,7 C 8,1 C 69,0 C 12,4 C 12,1 C 0,7 C 78 % 99 % 1016,6 hPa 0,0 l/m 9,7 km/h (2 Bft) N 0 0 min 8,0 C 12,1 C 17,2 km/h (3 Bft)
17.02.2023 14:26 11,9 C 8,1 C 69,4 C 12,4 C 12,2 C 0,5 C 78 % 99 % 1016,6 hPa 0,0 l/m 9,8 km/h (2 Bft) W-SW 247 0 min 8,2 C 12,2 C 11,9 km/h (2 Bft)
17.02.2023 14:30 11,9 C 8,1 C 69,4 C 12,2 C 12,2 C 0,3 C 78 % 99 % 1016,6 hPa 0,0 l/m 9,8 km/h (2 Bft) W-SW 247 0 min 8,2 C 12,2 C 11,9 km/h (2 Bft)
17.02.2023 14:35 11,8 C 8,1 C 69,4 C 12,4 C 12,1 C 0,6 C 78 % 99 % 1016,6 hPa 0,0 l/m 9,7 km/h (2 Bft) S-SW 202 0 min 8,1 C 12,1 C 19,5 km/h (3 Bft)
17.02.2023 14:40 11,8 C 8,1 C 69,4 C 12,4 C 12,3 C 0,6 C 78 % 99 % 1016,6 hPa 0,0 l/m 8,4 km/h (2 Bft) SW 225 0 min 8,1 C 12,3 C 13,0 km/h (3 Bft)
17.02.2023 14:45 11,9 C 8,1 C 69,4 C 12,3 C 12,3 C 0,4 C 78 % 99 % 1015,1 hPa 0,0 l/m 8,7 km/h (2 Bft) S-SW 202 0 min 8,2 C 12,3 C 8,4 km/h (2 Bft)
17.02.2023 14:50 11,9 C 8,1 C 69,4 C 12,5 C 12,2 C 0,6 C 78 % 99 % 1015,1 hPa 0,0 l/m 9,3 km/h (2 Bft) S-SW 202 0 min 8,2 C 12,2 C 13,7 km/h (3 Bft)
17.02.2023 14:55 12,0 C 8,1 C 69,4 C 12,4 C 12,1 C 0,4 C 78 % 99 % 1015,1 hPa 0,0 l/m 10,1 km/h (2 Bft) NO 45 0 min 8,3 C 12,1 C 18,0 km/h (3 Bft)
17.02.2023 15:00 11,9 C 8,2 C 69,4 C 12,3 C 11,9 C 0,4 C 78 % 99 % 1015,1 hPa 0,0 l/m 10,1 km/h (2 Bft) SW 225 0 min 8,2 C 11,9 C 14,8 km/h (3 Bft)
17.02.2023 15:05 11,9 C 8,2 C 61,5 C 12,1 C 11,8 C 0,2 C 78 % 99 % 1015,4 hPa 0,0 l/m 10,5 km/h (2 Bft) W-SW 247 0 min 8,2 C 11,8 C 14,2 km/h (3 Bft)
17.02.2023 15:10 11,9 C 8,2 C 61,5 C 12,1 C 11,6 C 0,2 C 78 % 99 % 1015,4 hPa 0,0 l/m 12,4 km/h (3 Bft) SW 225 0 min 8,2 C 11,6 C 20,6 km/h (4 Bft)
17.02.2023 15:15 11,9 C 8,2 C 61,5 C 12,0 C 11,8 C 0,1 C 78 % 99 % 1015,4 hPa 0,0 l/m 10,3 km/h (2 Bft) W 270 0 min 8,2 C 11,8 C 18,8 km/h (3 Bft)
17.02.2023 15:20 11,9 C 8,2 C 61,5 C 12,2 C 12,1 C 0,3 C 78 % 99 % 1015,4 hPa 0,0 l/m 7,9 km/h (2 Bft) O-SO 112 0 min 8,2 C 12,1 C 9,7 km/h (2 Bft)
17.02.2023 15:25 11,9 C 8,2 C 61,5 C 12,2 C 11,9 C 0,3 C 78 % 99 % 1014,3 hPa 0,0 l/m 8,7 km/h (2 Bft) SW 225 0 min 8,2 C 11,9 C 14,5 km/h (3 Bft)
17.02.2023 15:30 11,9 C 8,2 C 61,5 C 11,9 C 11,9 C 0,0 C 78 % 99 % 1014,3 hPa 0,0 l/m 9,0 km/h (2 Bft) S 180 0 min 8,2 C 11,9 C 7,6 km/h (2 Bft)
17.02.2023 15:35 12,0 C 8,2 C 61,5 C 12,1 C 12,1 C 0,1 C 78 % 99 % 1014,3 hPa 0,0 l/m 7,6 km/h (2 Bft) W 270 0 min 8,3 C 12,1 C 4,2 km/h (1 Bft)
17.02.2023 15:40 12,0 C 8,2 C 59,9 C 12,2 C 12,2 C 0,2 C 78 % 99 % 1014,3 hPa 0,0 l/m 7,2 km/h (2 Bft) S 180 0 min 8,3 C 12,2 C 11,3 km/h (2 Bft)
17.02.2023 15:45 12,0 C 8,3 C 59,9 C 12,1 C 11,7 C 0,1 C 78 % 99 % 1014,7 hPa 0,0 l/m 9,2 km/h (2 Bft) S-SO 157 0 min 8,3 C 11,7 C 9,3 km/h (2 Bft)
17.02.2023 15:50 12,0 C 8,3 C 59,9 C 12,0 C 11,4 C 0,0 C 78 % 99 % 1014,7 hPa 0,0 l/m 11,6 km/h (2 Bft) SW 225 0 min 8,3 C 11,4 C 22,4 km/h (4 Bft)
17.02.2023 15:55 11,9 C 8,3 C 59,9 C 11,8 C 11,2 C 0,0 C 78 % 99 % 1014,7 hPa 0,0 l/m 11,7 km/h (2 Bft) S 180 0 min 8,2 C 11,2 C 18,7 km/h (3 Bft)
17.02.2023 16:00 11,9 C 8,3 C 59,9 C 11,8 C 11,1 C 0,0 C 78 % 99 % 1014,7 hPa 0,0 l/m 11,4 km/h (2 Bft) SW 225 0 min 8,2 C 11,1 C 19,0 km/h (3 Bft)
17.02.2023 16:05 11,9 C 8,3 C 59,9 C 11,8 C 11,3 C 0,0 C 79 % 99 % 1014,1 hPa 0,0 l/m 10,3 km/h (2 Bft) SO 135 0 min 8,4 C 11,3 C 12,7 km/h (3 Bft)
17.02.2023 16:10 11,9 C 8,3 C 59,9 C 11,7 C 11,3 C 0,0 C 79 % 99 % 1014,1 hPa 0,0 l/m 10,0 km/h (2 Bft) SW 225 0 min 8,4 C 11,3 C 12,6 km/h (3 Bft)
17.02.2023 16:15 11,8 C 8,3 C 36,3 C 11,6 C 11,3 C 0,0 C 79 % 99 % 1014,1 hPa 0,0 l/m 10,0 km/h (2 Bft) SW 225 0 min 8,3 C 11,3 C 15,6 km/h (3 Bft)
17.02.2023 16:20 11,8 C 8,3 C 36,3 C 11,7 C 11,2 C 0,0 C 79 % 99 % 1014,1 hPa 0,0 l/m 10,6 km/h (2 Bft) S-SO 157 0 min 8,3 C 11,2 C 20,9 km/h (4 Bft)
17.02.2023 16:25 11,9 C 8,5 C 36,3 C 11,7 C 10,9 C 0,0 C 79 % 99 % 1014,5 hPa 0,0 l/m 12,7 km/h (3 Bft) S-SW 202 0 min 8,4 C 10,9 C 24,6 km/h (4 Bft)
17.02.2023 16:30 12,0 C 8,5 C 36,3 C 11,8 C 10,8 C 0,0 C 79 % 99 % 1014,5 hPa 0,0 l/m 14,0 km/h (3 Bft) W-SW 247 0 min 8,5 C 10,8 C 18,8 km/h (3 Bft)
17.02.2023 16:35 12,0 C 8,5 C 36,3 C 11,6 C 10,8 C 0,0 C 79 % 99 % 1014,5 hPa 0,0 l/m 14,2 km/h (3 Bft) SW 225 0 min 8,5 C 10,8 C 26,6 km/h (4 Bft)
17.02.2023 16:40 12,0 C 8,5 C 36,3 C 11,8 C 10,9 C 0,0 C 79 % 99 % 1014,5 hPa 0,0 l/m 12,9 km/h (3 Bft) S 180 0 min 8,5 C 10,9 C 17,4 km/h (3 Bft)
17.02.2023 16:45 12,0 C 8,5 C 36,3 C 11,8 C 11,0 C 0,0 C 79 % 99 % 1015,8 hPa 0,0 l/m 12,6 km/h (3 Bft) W-SW 247 0 min 8,5 C 11,0 C 13,8 km/h (3 Bft)
17.02.2023 16:50 12,0 C 8,5 C 36,3 C 11,8 C 11,1 C 0,0 C 79 % 99 % 1015,8 hPa 0,0 l/m 11,9 km/h (2 Bft) W-SW 247 0 min 8,5 C 11,1 C 11,3 km/h (2 Bft)
17.02.2023 16:55 12,0 C 8,5 C 32,1 C 11,8 C 11,2 C 0,0 C 79 % 99 % 1015,8 hPa 0,0 l/m 11,1 km/h (2 Bft) SW 225 0 min 8,5 C 11,2 C 10,5 km/h (2 Bft)
17.02.2023 17:00 12,0 C 8,5 C 32,1 C 11,9 C 11,4 C 0,0 C 79 % 99 % 1015,8 hPa 0,0 l/m 9,5 km/h (2 Bft) SO 135 0 min 8,5 C 11,4 C 8,5 km/h (2 Bft)
17.02.2023 17:05 12,0 C 8,6 C 32,1 C 11,9 C 11,7 C 0,0 C 79 % 99 % 1015,8 hPa 0,0 l/m 7,9 km/h (2 Bft) NW 315 0 min 8,5 C 11,7 C 11,9 km/h (2 Bft)
17.02.2023 17:10 12,1 C 8,6 C 32,1 C 12,0 C 11,6 C 0,0 C 79 % 99 % 1015,8 hPa 0,0 l/m 8,2 km/h (2 Bft) S 180 0 min 8,6 C 11,6 C 11,1 km/h (2 Bft)
17.02.2023 17:15 12,1 C 8,6 C 32,1 C 11,9 C 11,6 C 0,0 C 79 % 99 % 1015,8 hPa 0,0 l/m 9,7 km/h (2 Bft) SW 225 0 min 8,6 C 11,6 C 20,6 km/h (4 Bft)
17.02.2023 17:20 12,2 C 8,6 C 32,1 C 12,1 C 11,5 C 0,0 C 79 % 99 % 1015,8 hPa 0,0 l/m 10,6 km/h (2 Bft) S 180 0 min 8,7 C 11,5 C 23,7 km/h (4 Bft)
17.02.2023 17:25 12,2 C 8,6 C 32,1 C 12,1 C 11,7 C 0,0 C 78 % 99 % 1015,8 hPa 0,0 l/m 10,5 km/h (2 Bft) S-SW 202 0 min 8,5 C 11,7 C 4,5 km/h (1 Bft)
17.02.2023 17:30 12,2 C 8,6 C 30,0 C 12,0 C 11,7 C 0,0 C 78 % 99 % 1015,8 hPa 0,0 l/m 10,5 km/h (2 Bft) SW 225 0 min 8,5 C 11,7 C 19,6 km/h (3 Bft)
17.02.2023 17:35 12,2 C 8,6 C 30,0 C 12,1 C 11,6 C 0,0 C 78 % 99 % 1015,8 hPa 0,0 l/m 10,1 km/h (2 Bft) S-SW 202 0 min 8,5 C 11,6 C 13,7 km/h (3 Bft)
17.02.2023 17:40 12,2 C 8,6 C 30,0 C 12,1 C 11,7 C 0,0 C 78 % 99 % 1015,8 hPa 0,0 l/m 9,3 km/h (2 Bft) SW 225 0 min 8,5 C 11,7 C 10,9 km/h (2 Bft)
17.02.2023 17:45 12,3 C 8,6 C 30,0 C 12,2 C 12,0 C 0,0 C 78 % 99 % 1014,9 hPa 0,0 l/m 7,6 km/h (2 Bft) S 180 0 min 8,6 C 12,0 C 10,0 km/h (2 Bft)
17.02.2023 17:50 12,3 C 8,6 C 30,0 C 12,2 C 11,9 C 0,0 C 78 % 99 % 1014,9 hPa 0,0 l/m 8,0 km/h (2 Bft) S-SO 157 0 min 8,6 C 11,9 C 15,9 km/h (3 Bft)
17.02.2023 17:55 12,3 C 8,6 C 32,8 C 12,2 C 11,9 C 0,0 C 78 % 99 % 1014,9 hPa 0,0 l/m 8,2 km/h (2 Bft) SW 225 0 min 8,6 C 11,9 C 15,0 km/h (3 Bft)
17.02.2023 18:00 12,3 C 8,6 C 32,8 C 12,3 C 12,1 C 0,0 C 78 % 99 % 1014,9 hPa 0,0 l/m 7,7 km/h (2 Bft) SW 225 0 min 8,6 C 12,1 C 9,3 km/h (2 Bft)
17.02.2023 18:05 12,3 C 8,7 C 35,5 C 12,3 C 12,3 C 0,0 C 77 % 99 % 1015,2 hPa 0,0 l/m 6,9 km/h (2 Bft) S 180 0 min 8,4 C 12,3 C 11,1 km/h (2 Bft)
17.02.2023 18:10 12,4 C 8,7 C 35,5 C 12,4 C 12,2 C 0,0 C 77 % 99 % 1015,2 hPa 0,0 l/m 7,9 km/h (2 Bft) W-SW 247 0 min 8,5 C 12,2 C 12,4 km/h (3 Bft)
17.02.2023 18:15 12,4 C 8,7 C 35,5 C 12,4 C 12,0 C 0,0 C 77 % 99 % 1015,2 hPa 0,0 l/m 9,3 km/h (2 Bft) W-SW 247 0 min 8,5 C 12,0 C 14,8 km/h (3 Bft)
17.02.2023 18:20 12,4 C 8,7 C 35,5 C 12,3 C 11,8 C 0,0 C 77 % 99 % 1015,2 hPa 0,0 l/m 10,6 km/h (2 Bft) SW 225 0 min 8,5 C 11,8 C 11,7 km/h (2 Bft)
17.02.2023 18:25 12,5 C 8,7 C 35,5 C 12,4 C 11,6 C 0,0 C 77 % 99 % 1015,3 hPa 0,0 l/m 12,4 km/h (3 Bft) S-SW 202 0 min 8,6 C 11,6 C 20,3 km/h (4 Bft)
17.02.2023 18:30 12,6 C 8,7 C 35,5 C 12,4 C 11,7 C 0,0 C 77 % 99 % 1015,3 hPa 0,0 l/m 12,6 km/h (3 Bft) SW 225 0 min 8,7 C 11,7 C 10,1 km/h (2 Bft)
17.02.2023 18:35 12,7 C 8,7 C 35,5 C 12,4 C 11,7 C 0,0 C 77 % 99 % 1015,3 hPa 0,0 l/m 13,2 km/h (3 Bft) SW 225 0 min 8,8 C 11,7 C 16,3 km/h (3 Bft)
17.02.2023 18:40 12,7 C 8,7 C 35,5 C 12,5 C 11,8 C 0,0 C 77 % 99 % 1015,3 hPa 0,0 l/m 12,4 km/h (3 Bft) S 180 0 min 8,8 C 11,8 C 20,8 km/h (4 Bft)
17.02.2023 18:45 12,7 C 8,7 C 40,2 C 12,5 C 11,7 C 0,0 C 77 % 99 % 1015,0 hPa 0,0 l/m 13,2 km/h (3 Bft) SW 225 0 min 8,8 C 11,7 C 19,3 km/h (3 Bft)
17.02.2023 18:50 12,6 C 8,7 C 40,2 C 12,4 C 11,5 C 0,0 C 77 % 99 % 1015,0 hPa 0,0 l/m 14,5 km/h (3 Bft) SW 225 0 min 8,7 C 11,5 C 20,9 km/h (4 Bft)
17.02.2023 18:55 12,7 C 8,8 C 40,2 C 12,5 C 11,6 C 0,0 C 77 % 99 % 1015,0 hPa 0,0 l/m 14,2 km/h (3 Bft) SW 225 0 min 8,8 C 11,6 C 16,7 km/h (3 Bft)
17.02.2023 19:00 12,6 C 8,8 C 40,2 C 12,4 C 11,7 C 0,0 C 77 % 99 % 1015,0 hPa 0,0 l/m 13,2 km/h (3 Bft) W-SW 247 0 min 8,7 C 11,7 C 17,1 km/h (3 Bft)
17.02.2023 19:05 12,5 C 8,8 C 40,2 C 12,2 C 11,7 C 0,0 C 77 % 99 % 1015,3 hPa 0,0 l/m 11,1 km/h (2 Bft) W-SW 247 0 min 8,6 C 11,7 C 17,1 km/h (3 Bft)
17.02.2023 19:10 12,4 C 8,8 C 40,2 C 12,3 C 11,6 C 0,0 C 78 % 99 % 1015,3 hPa 0,0 l/m 11,3 km/h (2 Bft) S-SW 202 0 min 8,7 C 11,6 C 16,4 km/h (3 Bft)
17.02.2023 19:15 12,5 C 8,8 C 40,2 C 12,2 C 11,3 C 0,0 C 78 % 99 % 1015,3 hPa 0,0 l/m 10,9 km/h (2 Bft) S-SW 202 0 min 8,8 C 11,3 C 15,0 km/h (3 Bft)
17.02.2023 19:20 12,3 C 8,8 C 34,1 C 12,0 C 11,3 C 0,0 C 78 % 99 % 1015,3 hPa 0,0 l/m 10,3 km/h (2 Bft) S-SW 202 0 min 8,6 C 11,3 C 9,2 km/h (2 Bft)
17.02.2023 19:25 12,1 C 9,2 C 34,1 C 11,8 C 10,9 C 0,0 C 79 % 99 % 1015,5 hPa 0,0 l/m 8,7 km/h (2 Bft) S-SW 202 0 min 8,6 C 10,9 C 5,3 km/h (1 Bft)
17.02.2023 19:30 11,9 C 9,3 C 34,1 C 11,5 C 10,2 C 0,0 C 81 % 99 % 1015,5 hPa 0,0 l/m 9,5 km/h (2 Bft) W-SW 247 0 min 8,7 C 10,2 C 14,8 km/h (3 Bft)
17.02.2023 19:35 11,6 C 9,3 C 34,1 C 11,2 C 10,0 C 0,0 C 82 % 99 % 1015,5 hPa 0,7 l/m 8,2 km/h (2 Bft) W-SW 247 0 min 8,6 C 9,0 C 5,8 km/h (2 Bft)
17.02.2023 19:40 11,5 C 9,2 C 34,1 C 11,0 C 10,1 C 0,0 C 83 % 99 % 1015,5 hPa 0,0 l/m 7,6 km/h (2 Bft) SW 225 0 min 8,7 C 10,1 C 6,0 km/h (2 Bft)
17.02.2023 19:45 11,3 C 9,2 C 34,1 C 11,0 C 10,3 C 0,0 C 83 % 99 % 1016,3 hPa 0,0 l/m 5,8 km/h (2 Bft) S 180 0 min 8,5 C 10,3 C 8,0 km/h (2 Bft)
17.02.2023 19:50 11,3 C 9,2 C 34,1 C 11,1 C 10,6 C 0,0 C 84 % 99 % 1016,3 hPa 0,0 l/m 5,0 km/h (1 Bft) SW 225 0 min 8,7 C 10,6 C 4,2 km/h (1 Bft)
17.02.2023 19:55 11,1 C 9,2 C 27,1 C 10,9 C 10,6 C 0,0 C 85 % 99 % 1016,3 hPa 0,7 l/m 5,0 km/h (1 Bft) S 180 0 min 8,7 C 10,6 C 7,1 km/h (2 Bft)
17.02.2023 20:00 11,1 C 9,2 C 27,1 C 10,9 C 10,6 C 0,0 C 86 % 99 % 1016,3 hPa 0,0 l/m 4,8 km/h (1 Bft) SW 225 0 min 8,8 C 10,6 C 4,8 km/h (1 Bft)
17.02.2023 20:05 11,1 C 9,2 C 27,1 C 10,8 C 10,2 C 0,0 C 86 % 99 % 1017,0 hPa 0,7 l/m 6,4 km/h (2 Bft) W 270 0 min 8,8 C 10,2 C 10,3 km/h (2 Bft)
17.02.2023 20:10 11,0 C 9,3 C 27,1 C 10,7 C 10,0 C 0,0 C 86 % 99 % 1017,0 hPa 0,0 l/m 7,6 km/h (2 Bft) SW 225 0 min 8,7 C 9,1 C 8,4 km/h (2 Bft)
17.02.2023 20:15 10,9 C 9,3 C 27,1 C 10,7 C 9,8 C 0,0 C 87 % 99 % 1017,0 hPa 0,7 l/m 8,7 km/h (2 Bft) SW 225 0 min 8,8 C 8,6 C 14,0 km/h (3 Bft)
17.02.2023 20:20 10,8 C 9,3 C 27,1 C 10,5 C 9,8 C 0,0 C 87 % 99 % 1017,0 hPa 0,0 l/m 8,9 km/h (2 Bft) SW 225 0 min 8,7 C 8,6 C 10,1 km/h (2 Bft)
17.02.2023 20:25 10,8 C 9,3 C 27,1 C 10,6 C 9,7 C 0,0 C 87 % 99 % 1017,0 hPa 0,7 l/m 9,5 km/h (2 Bft) W-SW 247 0 min 8,7 C 8,4 C 9,0 km/h (2 Bft)
17.02.2023 20:30 10,8 C 9,3 C 27,1 C 10,6 C 9,8 C 0,0 C 87 % 99 % 1017,0 hPa 0,0 l/m 8,9 km/h (2 Bft) W-SW 247 0 min 8,7 C 8,6 C 9,7 km/h (2 Bft)
17.02.2023 20:35 10,7 C 9,3 C 27,1 C 10,5 C 9,5 C 0,0 C 88 % 99 % 1017,0 hPa 0,0 l/m 9,2 km/h (2 Bft) W-SW 247 0 min 8,8 C 8,2 C 17,9 km/h (3 Bft)
17.02.2023 20:40 10,7 C 9,3 C 27,1 C 10,4 C 9,4 C 0,0 C 88 % 99 % 1017,0 hPa 0,0 l/m 9,5 km/h (2 Bft) S-SW 202 0 min 8,8 C 8,0 C 13,0 km/h (3 Bft)
17.02.2023 20:45 10,7 C 9,4 C 27,1 C 10,3 C 8,9 C 0,0 C 88 % 99 % 1016,6 hPa 0,0 l/m 10,8 km/h (2 Bft) S-SW 202 0 min 8,8 C 7,2 C 15,0 km/h (3 Bft)
17.02.2023 20:50 10,7 C 9,4 C 27,1 C 10,2 C 8,8 C 0,0 C 88 % 99 % 1016,6 hPa 0,0 l/m 10,6 km/h (2 Bft) S 180 0 min 8,8 C 7,1 C 18,7 km/h (3 Bft)
17.02.2023 20:55 10,7 C 9,4 C 27,1 C 10,3 C 9,1 C 0,0 C 88 % 99 % 1016,6 hPa 0,0 l/m 9,0 km/h (2 Bft) S 180 0 min 8,8 C 7,7 C 8,2 km/h (2 Bft)
17.02.2023 21:00 10,7 C 9,4 C 27,1 C 10,3 C 9,2 C 0,0 C 88 % 99 % 1016,6 hPa 0,0 l/m 8,0 km/h (2 Bft) SW 225 0 min 8,8 C 8,1 C 14,2 km/h (3 Bft)
17.02.2023 21:05 10,6 C 9,4 C 27,1 C 10,2 C 9,0 C 0,0 C 87 % 99 % 1016,7 hPa 0,0 l/m 8,7 km/h (2 Bft) SW 225 0 min 8,5 C 7,7 C 15,8 km/h (3 Bft)
17.02.2023 21:10 10,7 C 9,4 C 26,5 C 10,1 C 9,0 C 0,0 C 88 % 99 % 1016,7 hPa 0,0 l/m 8,7 km/h (2 Bft) S-SW 202 0 min 8,8 C 7,7 C 9,2 km/h (2 Bft)
17.02.2023 21:15 10,7 C 9,4 C 26,5 C 10,3 C 8,9 C 0,0 C 87 % 99 % 1016,7 hPa 0,0 l/m 10,0 km/h (2 Bft) SW 225 0 min 8,6 C 7,3 C 20,3 km/h (4 Bft)
17.02.2023 21:20 10,6 C 9,4 C 26,5 C 10,2 C 9,0 C 0,0 C 87 % 99 % 1016,7 hPa 0,0 l/m 10,5 km/h (2 Bft) SW 225 0 min 8,5 C 7,3 C 9,2 km/h (2 Bft)
17.02.2023 21:25 10,7 C 9,3 C 26,5 C 10,3 C 9,3 C 0,0 C 87 % 99 % 1016,7 hPa 0,0 l/m 10,3 km/h (2 Bft) W-SW 247 0 min 8,6 C 7,7 C 11,3 km/h (2 Bft)
17.02.2023 21:30 10,7 C 9,3 C 26,5 C 10,4 C 9,2 C 0,0 C 87 % 99 % 1016,7 hPa 0,0 l/m 11,1 km/h (2 Bft) S-SW 202 0 min 8,6 C 7,5 C 12,4 km/h (3 Bft)
17.02.2023 21:35 10,7 C 9,3 C 23,1 C 10,4 C 9,3 C 0,0 C 87 % 99 % 1016,7 hPa 0,0 l/m 11,9 km/h (2 Bft) SW 225 0 min 8,6 C 7,5 C 9,5 km/h (2 Bft)
17.02.2023 21:40 10,8 C 9,3 C 23,1 C 10,3 C 9,3 C 0,0 C 87 % 99 % 1016,7 hPa 0,0 l/m 11,4 km/h (2 Bft) W-SW 247 0 min 8,7 C 7,6 C 11,4 km/h (2 Bft)
17.02.2023 21:45 10,7 C 9,3 C 21,5 C 10,4 C 9,2 C 0,0 C 86 % 99 % 1017,0 hPa 0,0 l/m 10,9 km/h (2 Bft) W-SW 247 0 min 8,5 C 7,5 C 10,8 km/h (2 Bft)
17.02.2023 21:50 10,7 C 9,2 C 21,5 C 10,3 C 9,0 C 0,0 C 86 % 99 % 1017,0 hPa 0,0 l/m 11,3 km/h (2 Bft) SW 225 0 min 8,5 C 7,2 C 9,5 km/h (2 Bft)
17.02.2023 21:55 10,7 C 9,3 C 21,5 C 10,1 C 9,0 C 0,0 C 86 % 99 % 1017,0 hPa 0,0 l/m 10,5 km/h (2 Bft) SW 225 0 min 8,5 C 7,3 C 9,7 km/h (2 Bft)
17.02.2023 22:00 10,5 C 9,2 C 21,5 C 10,2 C 9,1 C 0,0 C 86 % 99 % 1017,0 hPa 0,0 l/m 9,3 km/h (2 Bft) SW 225 0 min 8,3 C 7,7 C 14,3 km/h (3 Bft)
17.02.2023 22:05 10,4 C 9,2 C 21,5 C 10,1 C 9,0 C 0,0 C 86 % 99 % 1017,8 hPa 0,0 l/m 9,5 km/h (2 Bft) SW 225 0 min 8,2 C 7,5 C 12,9 km/h (3 Bft)
17.02.2023 22:10 10,4 C 9,2 C 21,5 C 10,1 C 8,9 C 0,0 C 86 % 99 % 1017,8 hPa 0,0 l/m 10,0 km/h (2 Bft) SW 225 0 min 8,2 C 7,3 C 12,9 km/h (3 Bft)
17.02.2023 22:15 10,3 C 9,2 C 21,5 C 9,8 C 8,9 C 0,0 C 85 % 99 % 1017,8 hPa 0,0 l/m 9,8 km/h (2 Bft) S-SW 202 0 min 7,9 C 7,4 C 6,9 km/h (2 Bft)
17.02.2023 22:20 10,3 C 9,2 C 21,5 C 9,8 C 8,9 C 0,0 C 85 % 99 % 1017,8 hPa 0,0 l/m 10,3 km/h (2 Bft) W 270 0 min 7,9 C 7,3 C 9,5 km/h (2 Bft)
17.02.2023 22:25 10,4 C 9,2 C 22,7 C 10,1 C 9,0 C 0,0 C 85 % 99 % 1018,2 hPa 0,0 l/m 10,6 km/h (2 Bft) W-SW 247 0 min 8,0 C 7,3 C 14,3 km/h (3 Bft)
17.02.2023 22:30 10,4 C 9,2 C 22,7 C 10,1 C 9,2 C 0,0 C 84 % 99 % 1018,2 hPa 0,0 l/m 10,5 km/h (2 Bft) SW 225 0 min 7,8 C 7,6 C 11,6 km/h (2 Bft)
17.02.2023 22:35 10,5 C 9,2 C 22,7 C 10,1 C 9,2 C 0,0 C 84 % 99 % 1018,2 hPa 0,0 l/m 10,9 km/h (2 Bft) SW 225 0 min 7,9 C 7,5 C 15,9 km/h (3 Bft)
17.02.2023 22:40 10,4 C 9,2 C 22,7 C 10,0 C 9,2 C 0,0 C 83 % 99 % 1018,2 hPa 0,0 l/m 11,6 km/h (2 Bft) SW 225 0 min 7,6 C 7,4 C 10,8 km/h (2 Bft)
17.02.2023 22:45 10,5 C 9,1 C 22,7 C 10,3 C 9,3 C 0,0 C 83 % 99 % 1018,2 hPa 0,0 l/m 12,9 km/h (3 Bft) SW 225 0 min 7,7 C 7,3 C 28,6 km/h (4 Bft)
17.02.2023 22:50 10,6 C 9,1 C 22,7 C 10,2 C 9,3 C 0,0 C 82 % 99 % 1018,2 hPa 0,0 l/m 13,2 km/h (3 Bft) SW 225 0 min 7,7 C 7,3 C 15,8 km/h (3 Bft)
17.02.2023 22:55 10,7 C 9,1 C 22,7 C 10,4 C 9,4 C 0,0 C 81 % 99 % 1018,2 hPa 0,0 l/m 13,0 km/h (3 Bft) SW 225 0 min 7,6 C 7,4 C 16,1 km/h (3 Bft)
17.02.2023 23:00 10,7 C 9,1 C 22,1 C 10,3 C 9,4 C 0,0 C 81 % 99 % 1018,2 hPa 0,0 l/m 12,7 km/h (3 Bft) S-SW 202 0 min 7,6 C 7,5 C 14,3 km/h (3 Bft)
17.02.2023 23:05 10,7 C 9,1 C 22,1 C 10,3 C 9,4 C 0,0 C 80 % 99 % 1017,8 hPa 0,0 l/m 13,7 km/h (3 Bft) SW 225 0 min 7,4 C 7,3 C 16,4 km/h (3 Bft)
17.02.2023 23:10 10,8 C 9,1 C 22,1 C 10,3 C 9,4 C 0,0 C 79 % 99 % 1017,8 hPa 0,0 l/m 13,5 km/h (3 Bft) SW 225 0 min 7,3 C 7,4 C 24,5 km/h (4 Bft)
17.02.2023 23:15 10,7 C 9,1 C 22,1 C 10,4 C 9,1 C 0,0 C 79 % 99 % 1017,8 hPa 0,0 l/m 12,4 km/h (3 Bft) SW 225 0 min 7,2 C 7,2 C 11,9 km/h (2 Bft)
17.02.2023 23:20 10,7 C 9,1 C 22,1 C 10,2 C 9,1 C 0,0 C 79 % 99 % 1017,8 hPa 0,0 l/m 11,7 km/h (2 Bft) S-SW 202 0 min 7,2 C 7,3 C 14,3 km/h (3 Bft)
17.02.2023 23:25 10,7 C 9,1 C 22,1 C 10,4 C 9,6 C 0,0 C 79 % 99 % 1018,6 hPa 0,0 l/m 10,6 km/h (2 Bft) S-SW 202 0 min 7,2 C 8,1 C 12,2 km/h (2 Bft)
17.02.2023 23:30 10,7 C 9,1 C 22,1 C 10,5 C 9,8 C 0,0 C 79 % 99 % 1018,6 hPa 0,0 l/m 11,1 km/h (2 Bft) SW 225 0 min 7,2 C 8,2 C 18,5 km/h (3 Bft)
17.02.2023 23:35 10,7 C 9,2 C 21,7 C 10,5 C 9,3 C 0,0 C 79 % 99 % 1018,6 hPa 0,0 l/m 11,7 km/h (2 Bft) SW 225 0 min 7,2 C 7,5 C 8,7 km/h (2 Bft)
17.02.2023 23:40 10,5 C 9,3 C 21,7 C 10,2 C 9,0 C 0,0 C 79 % 99 % 1018,6 hPa 0,0 l/m 9,7 km/h (2 Bft) SW 225 0 min 7,0 C 7,5 C 4,5 km/h (1 Bft)
17.02.2023 23:45 10,2 C 9,3 C 21,7 C 9,8 C 8,9 C 0,0 C 81 % 99 % 1018,2 hPa 0,0 l/m 6,4 km/h (2 Bft) S 180 0 min 7,1 C 8,1 C 9,0 km/h (2 Bft)
17.02.2023 23:50 10,1 C 9,3 C 21,7 C 9,7 C 8,8 C 0,0 C 81 % 99 % 1018,2 hPa 0,0 l/m 5,8 km/h (2 Bft) SW 225 0 min 7,0 C 8,1 C 9,2 km/h (2 Bft)
17.02.2023 23:55 10,1 C 9,2 C 21,7 C 9,7 C 8,9 C 0,0 C 82 % 99 % 1018,2 hPa 0,0 l/m 5,1 km/h (1 Bft) W-SW 247 0 min 7,2 C 8,5 C 7,2 km/h (2 Bft)
_ Min-Zeit 01:20 00:00 21:45 01:20 01:25 00:55 00:00 00:00 16:05 - 00:32 - - - 00:00 20:50 00:00
Minimum _ 7,9 C 7,2 C 21,5 C 7,7 C 7,2 C 0,0 C 75 % 99 % 1014,1 hPa - 0,2 km/h (0 Bft) - - - 3,8 C 7,1 C 0,0 km/h (0 Bft)
_ Max-Zeit 18:35 20:45 00:26 12:41 12:41 12:41 20:35 00:00 00:00 19:35 18:50 - - 00:00 20:00 12:41 13:05
Maximum _ 12,7 C 9,4 C 73,0 C 12,6 C 12,6 C 1,5 C 88 % 99 % 1022,5 hPa 0,7 l/m 14,5 km/h
SW (3 Bft)
- - 0 min 8,8 C 12,6 C 33,6 km/h
N (5 Bft)
Durchschnitt _ 10,1 C 8,1 C 53,9 C 10,2 C 9,9 C 0,2 C 80 % 99 % 1018,1 hPa #3,4 l/m 6,3 km/h (2 Bft) SW - #0 min. 6,7 C 9,6 C 9,5 km/h (2 Bft)
2023 www.wetterstation-wechselburg.de